Lindberg Crosby — WCO9247 — position and weather

sailwx.info

Track history (hours):
 
Tides and Currents Weather Stations Pressure Air Temp Water Temp Dewpoint Dewpoint Depression Visibility Wind Speed Wind Dir Waves Ship Positions

Lindberg Crosby

Owner: CROSBY, KURT, GOLDEN MEADOW, LA. More information available from US FCC via Universal Licensing System and Coast Guard Vessel Documentation Center.

Last reported at 2018-Feb-21 22:30 UTC. Time now 2018-Feb-21 22:53 UTC.
Position N 29°57' W 093°52'.

Length 18 m; draft 2.6 m.

Type: Tug. MMSI: 366978460.

Date/timePositionNaut miles runAvg speedWind from/ knotsBaromVisibWave heightAir tempDewpointWater temp
2018-Feb-21 22:30N 29°57' W 093°52'2 4.7
2018-Feb-21 22:00N 29°55' W 093°53'3 5.6
2018-Feb-21 21:30N 29°53' W 093°55'3 5.4
2018-Feb-21 21:00N 29°51' W 093°57'2 4.8
2018-Feb-21 20:30N 29°49' W 093°59'2 4.1
2018-Feb-21 20:00N 29°48' W 094°00'3 5.3
2018-Feb-21 19:30N 29°46' W 094°03'3 5.2
2018-Feb-21 19:00N 29°44' W 094°05'3 5.0
2018-Feb-21 18:30N 29°43' W 094°07'2 4.9
2018-Feb-21 18:00N 29°41' W 094°09'2 4.8
2018-Feb-21 17:30N 29°41' W 094°12'2 4.8
2018-Feb-21 17:00N 29°40' W 094°15'2 4.7
2018-Feb-21 16:30N 29°39' W 094°17'2 4.2
2018-Feb-21 15:56N 29°37' W 094°19'2 4.5
2018-Feb-21 15:28N 29°37' W 094°22'10 1.1
2018-Feb-21 06:24N 29°31' W 094°31'0 0.0
2018-Feb-21 05:59N 29°31' W 094°31'33 0.8
2018-Feb-19 13:53N 29°12' W 095°03'2 5.2
2018-Feb-19 13:28N 29°14' W 095°02'3 6.2
2018-Feb-19 12:59N 29°16' W 094°59'5 6.2
2018-Feb-19 12:06N 29°18' W 094°53'5 4.6
2018-Feb-19 11:05N 29°21' W 094°49'0 0.0
2018-Feb-19 10:38N 29°21' W 094°49'0 0.0
2018-Feb-19 10:30N 29°21' W 094°49'0 0.0
2018-Feb-19 09:57N 29°21' W 094°49'0 0.0
2018-Feb-19 09:29N 29°21' W 094°49'0 0.0
2018-Feb-19 09:00N 29°21' W 094°49'0 0.0
2018-Feb-19 08:30N 29°21' W 094°49'0 0.0
2018-Feb-19 08:00N 29°21' W 094°49'0 0.0
2018-Feb-19 07:30N 29°21' W 094°49'0 0.0
2018-Feb-19 07:00N 29°21' W 094°49'0 0.0
2018-Feb-19 06:29N 29°21' W 094°49'0 0.0
2018-Feb-19 05:54N 29°21' W 094°49'0 0.0
2018-Feb-19 05:30N 29°21' W 094°49'0 0.0
2018-Feb-19 05:00N 29°21' W 094°49'10 1.2
2018-Feb-18 20:13N 29°28' W 094°40'0 0.0
2018-Feb-18 19:55N 29°28' W 094°40'0 0.0
2018-Feb-18 19:23N 29°28' W 094°40'0 0.0
2018-Feb-18 18:59N 29°28' W 094°40'0 0.0
2018-Feb-18 18:28N 29°28' W 094°40'0 0.0
2018-Feb-18 18:00N 29°28' W 094°40'0 0.0
2018-Feb-18 17:29N 29°28' W 094°40'0 0.0
2018-Feb-18 17:00N 29°28' W 094°40'0 0.0
2018-Feb-18 16:30N 29°28' W 094°40'0 0.0
2018-Feb-18 15:59N 29°28' W 094°40'0 0.0
2018-Feb-18 15:24N 29°28' W 094°40'0 0.0
2018-Feb-18 14:59N 29°28' W 094°40'0 0.0
2018-Feb-18 14:30N 29°28' W 094°40'0 0.0
2018-Feb-18 14:00N 29°28' W 094°40'0 0.0
2018-Feb-18 13:24N 29°28' W 094°40'0 0.0
2018-Feb-18 12:59N 29°28' W 094°40'0 0.0
2018-Feb-18 12:30N 29°28' W 094°40'0 0.0
2018-Feb-18 11:42N 29°28' W 094°40'0 0.0
2018-Feb-18 11:24N 29°28' W 094°40'0 0.0
2018-Feb-18 10:10N 29°28' W 094°40'0 0.0
2018-Feb-18 09:57N 29°28' W 094°40'0 0.0
2018-Feb-18 09:25N 29°28' W 094°40'0 0.0
2018-Feb-18 07:54N 29°28' W 094°40'0 0.0
2018-Feb-18 07:15N 29°28' W 094°40'0 0.0
2018-Feb-18 06:32N 29°28' W 094°40'0 0.0
2018-Feb-18 02:26N 29°28' W 094°40'0 0.0
2018-Feb-18 02:00N 29°28' W 094°40'0 0.0
2018-Feb-18 01:30N 29°28' W 094°40'0 0.0
2018-Feb-18 00:55N 29°28' W 094°40'0 0.0
2018-Feb-18 00:30N 29°28' W 094°40'15 1.7
2018-Feb-17 16:04N 29°34' W 094°25'0 1.6
2018-Feb-17 16:00N 29°34' W 094°25'2 4.2
2018-Feb-17 15:30N 29°36' W 094°23'1 2.6
2018-Feb-17 14:59N 29°36' W 094°22'0 0.0
2018-Feb-17 14:30N 29°36' W 094°22'0 0.0
2018-Feb-17 14:00N 29°36' W 094°22'0 0.0
2018-Feb-17 13:29N 29°36' W 094°22'0 0.0
2018-Feb-17 12:56N 29°36' W 094°22'0 0.0
2018-Feb-17 12:30N 29°36' W 094°22'0 0.0
2018-Feb-17 11:54N 29°36' W 094°22'0 0.0
2018-Feb-17 11:28N 29°36' W 094°22'0 0.0
2018-Feb-17 10:54N 29°36' W 094°22'0 0.0
2018-Feb-17 10:25N 29°36' W 094°22'0 0.0
2018-Feb-17 10:00N 29°36' W 094°22'0 0.0
2018-Feb-17 09:30N 29°36' W 094°22'0 0.0
2018-Feb-17 09:00N 29°36' W 094°22'0 0.0
2018-Feb-17 08:30N 29°36' W 094°22'0 0.0
2018-Feb-17 07:59N 29°36' W 094°22'0 0.0
2018-Feb-17 07:29N 29°36' W 094°22'0 0.0
2018-Feb-17 06:51N 29°36' W 094°22'0 0.0
2018-Feb-17 06:30N 29°36' W 094°22'0 0.0
2018-Feb-17 05:54N 29°36' W 094°22'0 0.0
2018-Feb-17 05:30N 29°36' W 094°22'0 0.0
2018-Feb-17 04:57N 29°36' W 094°22'0 0.0
2018-Feb-17 04:30N 29°36' W 094°22'0 0.0
2018-Feb-17 03:57N 29°36' W 094°22'0 0.0
2018-Feb-17 03:29N 29°36' W 094°22'0 0.0
2018-Feb-17 02:59N 29°36' W 094°22'0 0.0
2018-Feb-17 02:27N 29°36' W 094°22'0 0.0
2018-Feb-17 01:53N 29°36' W 094°22'0 0.1
2018-Feb-17 01:30N 29°36' W 094°22'0 0.0
2018-Feb-17 00:57N 29°36' W 094°22'0 0.0
2018-Feb-17 00:30N 29°36' W 094°22'0 0.8
2018-Feb-17 00:00N 29°36' W 094°22'3 6.0
2018-Feb-16 23:30N 29°38' W 094°19'3 6.5
2018-Feb-16 23:00N 29°39' W 094°15'3 5.9
2018-Feb-16 22:30N 29°41' W 094°12'3 5.4
2018-Feb-16 22:00N 29°42' W 094°09'3 6.5
2018-Feb-16 21:30N 29°44' W 094°06'3 6.5
2018-Feb-16 21:00N 29°46' W 094°03'3 6.5
2018-Feb-16 20:31N 29°48' W 094°01'3 6.0
2018-Feb-16 20:00N 29°49' W 093°58'4 7.2
2018-Feb-16 19:30N 29°52' W 093°56'4 8.0
2018-Feb-16 19:00N 29°56' W 093°53'2 4.7
2018-Feb-16 18:30N 29°58' W 093°52'0 0.2
2018-Feb-16 18:00N 29°58' W 093°52'0 0.0
2018-Feb-16 17:31N 29°58' W 093°52'0 0.0
2018-Feb-16 17:01N 29°58' W 093°52'0 0.0
2018-Feb-16 16:31N 29°58' W 093°52'0 0.0
2018-Feb-16 16:00N 29°58' W 093°52'0 0.0
2018-Feb-16 15:31N 29°58' W 093°52'0 0.0
2018-Feb-16 15:00N 29°58' W 093°52'0 0.0
2018-Feb-16 14:30N 29°58' W 093°52'0 0.0
2018-Feb-16 14:01N 29°58' W 093°52'0 0.0
2018-Feb-16 13:31N 29°58' W 093°52'0 0.0
2018-Feb-16 13:00N 29°58' W 093°52'0 0.0
2018-Feb-16 12:30N 29°58' W 093°52'0 0.0
2018-Feb-16 12:00N 29°58' W 093°52'0 0.0
2018-Feb-16 11:31N 29°58' W 093°52'0 0.0
2018-Feb-16 11:00N 29°58' W 093°52'0 0.0
2018-Feb-16 10:30N 29°58' W 093°52'0 0.0
2018-Feb-16 10:00N 29°58' W 093°52'0 0.0
2018-Feb-16 09:31N 29°58' W 093°52'0 0.0
2018-Feb-16 09:00N 29°58' W 093°52'0 0.0
2018-Feb-16 08:30N 29°58' W 093°52'0 0.0
2018-Feb-16 08:00N 29°58' W 093°52'0 0.0
2018-Feb-16 07:30N 29°58' W 093°52'0 0.0
2018-Feb-16 07:00N 29°58' W 093°52'0 0.0
2018-Feb-16 06:30N 29°58' W 093°52'0 0.0
2018-Feb-16 06:00N 29°58' W 093°52'0 0.0
2018-Feb-16 05:30N 29°58' W 093°52'0 0.0
2018-Feb-16 05:00N 29°58' W 093°52'0 0.0
2018-Feb-16 04:31N 29°58' W 093°52'0 0.0
2018-Feb-16 04:01N 29°58' W 093°52'0 0.0
2018-Feb-16 03:30N 29°58' W 093°52'0 0.0
2018-Feb-16 03:00N 29°58' W 093°52'0 0.0
2018-Feb-16 02:30N 29°58' W 093°52'0 0.0
2018-Feb-16 02:00N 29°58' W 093°52'0 0.0
2018-Feb-16 01:30N 29°58' W 093°52'0 0.0
2018-Feb-16 01:00N 29°58' W 093°52'0 0.0
2018-Feb-16 00:31N 29°58' W 093°52'0 0.0
2018-Feb-16 00:00N 29°58' W 093°52'0 0.0
2018-Feb-15 23:30N 29°58' W 093°52'0 0.0
2018-Feb-15 23:00N 29°58' W 093°52'0 0.0
2018-Feb-15 22:31N 29°58' W 093°52'0 0.0
2018-Feb-15 22:00N 29°58' W 093°52'0 0.0
2018-Feb-15 21:30N 29°58' W 093°52'0 0.0
2018-Feb-15 21:00N 29°58' W 093°52'0 0.1
2018-Feb-15 20:30N 29°58' W 093°52'0 0.6
2018-Feb-15 20:01N 29°58' W 093°51'0 0.0
2018-Feb-15 19:31N 29°58' W 093°51'0 0.6
2018-Feb-15 19:00N 29°58' W 093°52'0 0.8
2018-Feb-15 18:30N 29°58' W 093°51'3 7.0
2018-Feb-15 18:01N 29°59' W 093°55'1 2.9
2018-Feb-15 17:30N 29°60' W 093°57'0 0.0
2018-Feb-15 17:00N 29°60' W 093°57'0 0.0
2018-Feb-15 16:31N 29°60' W 093°57'0 0.0
2018-Feb-15 16:01N 29°60' W 093°57'0 0.0
2018-Feb-15 15:30N 29°60' W 093°57'0 0.0
2018-Feb-15 15:00N 29°60' W 093°57'0 0.0
2018-Feb-15 14:31N 29°60' W 093°57'0 0.0
2018-Feb-15 13:59N 29°60' W 093°57'0 0.0
2018-Feb-15 13:31N 29°60' W 093°57'0 0.0
2018-Feb-15 13:00N 29°60' W 093°57'0 0.0
2018-Feb-15 12:31N 29°60' W 093°57'0 0.0
2018-Feb-15 12:00N 29°60' W 093°57'0 0.0
2018-Feb-15 11:29N 29°60' W 093°57'0 0.0
2018-Feb-15 10:59N 29°60' W 093°57'0 0.0
2018-Feb-15 10:29N 29°60' W 093°57'0 0.0
2018-Feb-15 10:00N 29°60' W 093°57'0 0.0
2018-Feb-15 09:31N 29°60' W 093°57'0 0.0
2018-Feb-15 09:00N 29°60' W 093°57'0 0.0
2018-Feb-15 08:30N 29°60' W 093°57'0 0.0
2018-Feb-15 08:00N 29°60' W 093°57'0 0.0
2018-Feb-15 07:30N 29°60' W 093°57'0 0.0
2018-Feb-15 07:01N 29°60' W 093°57'0 0.0
2018-Feb-15 06:31N 29°60' W 093°57'0 0.0
2018-Feb-15 05:59N 29°60' W 093°57'0 0.0
2018-Feb-15 05:30N 29°60' W 093°57'0 0.0
2018-Feb-15 05:00N 29°60' W 093°57'0 0.0
2018-Feb-15 04:29N 29°60' W 093°57'0 0.0
2018-Feb-15 04:00N 29°60' W 093°57'0 0.0
2018-Feb-15 03:30N 29°60' W 093°57'0 0.0
2018-Feb-15 03:01N 29°60' W 093°57'0 0.0
2018-Feb-15 02:31N 29°60' W 093°57'0 0.0
2018-Feb-15 02:01N 29°60' W 093°57'0 0.0
2018-Feb-15 01:30N 29°60' W 093°57'0 0.0
2018-Feb-15 01:00N 29°60' W 093°57'0 0.0
2018-Feb-15 00:31N 29°60' W 093°57'0 0.0
2018-Feb-15 00:01N 29°60' W 093°57'0 0.0
2018-Feb-14 23:31N 29°60' W 093°57'0 0.0
2018-Feb-14 23:01N 29°60' W 093°57'0 0.0
2018-Feb-14 22:30N 29°60' W 093°57'0 0.0
2018-Feb-14 22:00N 29°60' W 093°57'0 0.0
2018-Feb-14 21:30N 29°60' W 093°57'1 2.5
2018-Feb-14 21:01N 29°59' W 093°55'3 5.2
2018-Feb-14 20:30N 29°59' W 093°52'2 4.0
2018-Feb-14 20:00N 29°57' W 093°52'1 1.8
2018-Feb-14 19:31N 29°58' W 093°52'1 1.6
2018-Feb-14 19:00N 29°57' W 093°52'1 2.2
2018-Feb-14 18:30N 29°58' W 093°52'0 0.0
2018-Feb-14 18:01N 29°58' W 093°52'0 0.0
2018-Feb-14 17:30N 29°58' W 093°52'0 0.0
2018-Feb-14 17:01N 29°58' W 093°52'0 0.0
2018-Feb-14 16:30N 29°58' W 093°52'0 0.0
2018-Feb-14 16:01N 29°58' W 093°52'0 0.0
2018-Feb-14 15:29N 29°58' W 093°52'0 0.0
2018-Feb-14 15:00N 29°58' W 093°52'0 0.0
2018-Feb-14 14:30N 29°58' W 093°52'0 0.0
2018-Feb-14 14:00N 29°58' W 093°52'0 0.0
2018-Feb-14 13:31N 29°58' W 093°52'0 0.0
2018-Feb-14 13:00N 29°58' W 093°52'0 0.0
2018-Feb-14 12:30N 29°58' W 093°52'0 0.0
2018-Feb-14 12:01N 29°58' W 093°52'0 0.0
2018-Feb-14 11:30N 29°58' W 093°52'0 0.0
2018-Feb-14 11:01N 29°58' W 093°52'0 0.0
2018-Feb-14 10:28N 29°58' W 093°52'0 0.0
2018-Feb-14 10:00N 29°58' W 093°52'0 0.0
2018-Feb-14 09:31N 29°58' W 093°52'0 0.0
2018-Feb-14 09:01N 29°58' W 093°52'0 0.0
2018-Feb-14 08:30N 29°58' W 093°52'0 0.0
2018-Feb-14 08:00N 29°58' W 093°52'1 2.3
2018-Feb-14 07:31N 29°57' W 093°52'0 0.2
2018-Feb-14 07:01N 29°57' W 093°52'3 6.0
2018-Feb-14 06:30N 29°55' W 093°54'3 6.2
2018-Feb-14 06:01N 29°52' W 093°56'3 5.8
2018-Feb-14 05:30N 29°50' W 093°57'2 4.9
2018-Feb-14 05:00N 29°48' W 093°60'2 4.7
2018-Feb-14 04:31N 29°47' W 094°02'2 4.7
2018-Feb-14 04:00N 29°45' W 094°04'2 4.7
2018-Feb-14 03:31N 29°44' W 094°06'2 4.5
2018-Feb-14 03:00N 29°42' W 094°08'2 4.4
2018-Feb-14 02:31N 29°41' W 094°10'2 4.5
2018-Feb-14 02:00N 29°41' W 094°13'2 4.5
2018-Feb-14 01:30N 29°39' W 094°15'2 4.5
2018-Feb-14 01:00N 29°38' W 094°17'3 4.5
2018-Feb-14 00:21N 29°37' W 094°20'2 4.3
2018-Feb-13 23:55N 29°36' W 094°22'27 3.8
2018-Feb-13 16:43N 29°30' W 094°52'3 6.3
2018-Feb-13 16:14N 29°33' W 094°54'1 6.4
2018-Feb-13 16:00N 29°34' W 094°55'3 5.9
2018-Feb-13 15:30N 29°36' W 094°57'3 6.4
2018-Feb-13 15:00N 29°39' W 094°58'3 6.4
2018-Feb-13 14:29N 29°42' W 095°01'  
Track history (hours):
 
Tides and Currents Weather Stations Pressure Air Temp Water Temp Dewpoint Dewpoint Depression Visibility Wind Speed Wind Dir Waves Ship Positions

Lindberg Crosby

Owner: CROSBY, KURT, GOLDEN MEADOW, LA. More information available from US FCC via Universal Licensing System and Coast Guard Vessel Documentation Center.

Last reported at 2018-Feb-21 22:30 UTC. Time now 2018-Feb-21 22:53 UTC.
Position N 29°57' W 093°52'.

Length 18 m; draft 2.6 m.

Type: Tug. MMSI: 366978460.

Date/timePositionNaut miles runAvg speedWind from/ knotsBaromVisibWave heightAir tempDewpointWater temp
2018-Feb-21 22:30N 29°57' W 093°52'2 4.7
2018-Feb-21 22:00N 29°55' W 093°53'3 5.6
2018-Feb-21 21:30N 29°53' W 093°55'3 5.4
2018-Feb-21 21:00N 29°51' W 093°57'2 4.8
2018-Feb-21 20:30N 29°49' W 093°59'2 4.1
2018-Feb-21 20:00N 29°48' W 094°00'3 5.3
2018-Feb-21 19:30N 29°46' W 094°03'3 5.2
2018-Feb-21 19:00N 29°44' W 094°05'3 5.0
2018-Feb-21 18:30N 29°43' W 094°07'2 4.9
2018-Feb-21 18:00N 29°41' W 094°09'2 4.8
2018-Feb-21 17:30N 29°41' W 094°12'2 4.8
2018-Feb-21 17:00N 29°40' W 094°15'2 4.7
2018-Feb-21 16:30N 29°39' W 094°17'2 4.2
2018-Feb-21 15:56N 29°37' W 094°19'2 4.5
2018-Feb-21 15:28N 29°37' W 094°22'10 1.1
2018-Feb-21 06:24N 29°31' W 094°31'0 0.0
2018-Feb-21 05:59N 29°31' W 094°31'33 0.8
2018-Feb-19 13:53N 29°12' W 095°03'2 5.2
2018-Feb-19 13:28N 29°14' W 095°02'3 6.2
2018-Feb-19 12:59N 29°16' W 094°59'5 6.2
2018-Feb-19 12:06N 29°18' W 094°53'5 4.6
2018-Feb-19 11:05N 29°21' W 094°49'0 0.0
2018-Feb-19 10:38N 29°21' W 094°49'0 0.0
2018-Feb-19 10:30N 29°21' W 094°49'0 0.0
2018-Feb-19 09:57N 29°21' W 094°49'0 0.0
2018-Feb-19 09:29N 29°21' W 094°49'0 0.0
2018-Feb-19 09:00N 29°21' W 094°49'0 0.0
2018-Feb-19 08:30N 29°21' W 094°49'0 0.0
2018-Feb-19 08:00N 29°21' W 094°49'0 0.0
2018-Feb-19 07:30N 29°21' W 094°49'0 0.0
2018-Feb-19 07:00N 29°21' W 094°49'0 0.0
2018-Feb-19 06:29N 29°21' W 094°49'0 0.0
2018-Feb-19 05:54N 29°21' W 094°49'0 0.0
2018-Feb-19 05:30N 29°21' W 094°49'0 0.0
2018-Feb-19 05:00N 29°21' W 094°49'10 1.2
2018-Feb-18 20:13N 29°28' W 094°40'0 0.0
2018-Feb-18 19:55N 29°28' W 094°40'0 0.0
2018-Feb-18 19:23N 29°28' W 094°40'0 0.0
2018-Feb-18 18:59N 29°28' W 094°40'0 0.0
2018-Feb-18 18:28N 29°28' W 094°40'0 0.0
2018-Feb-18 18:00N 29°28' W 094°40'0 0.0
2018-Feb-18 17:29N 29°28' W 094°40'0 0.0
2018-Feb-18 17:00N 29°28' W 094°40'0 0.0
2018-Feb-18 16:30N 29°28' W 094°40'0 0.0
2018-Feb-18 15:59N 29°28' W 094°40'0 0.0
2018-Feb-18 15:24N 29°28' W 094°40'0 0.0
2018-Feb-18 14:59N 29°28' W 094°40'0 0.0
2018-Feb-18 14:30N 29°28' W 094°40'0 0.0
2018-Feb-18 14:00N 29°28' W 094°40'0 0.0
2018-Feb-18 13:24N 29°28' W 094°40'0 0.0
2018-Feb-18 12:59N 29°28' W 094°40'0 0.0
2018-Feb-18 12:30N 29°28' W 094°40'0 0.0
2018-Feb-18 11:42N 29°28' W 094°40'0 0.0
2018-Feb-18 11:24N 29°28' W 094°40'0 0.0
2018-Feb-18 10:10N 29°28' W 094°40'0 0.0
2018-Feb-18 09:57N 29°28' W 094°40'0 0.0
2018-Feb-18 09:25N 29°28' W 094°40'0 0.0
2018-Feb-18 07:54N 29°28' W 094°40'0 0.0
2018-Feb-18 07:15N 29°28' W 094°40'0 0.0
2018-Feb-18 06:32N 29°28' W 094°40'0 0.0
2018-Feb-18 02:26N 29°28' W 094°40'0 0.0
2018-Feb-18 02:00N 29°28' W 094°40'0 0.0
2018-Feb-18 01:30N 29°28' W 094°40'0 0.0
2018-Feb-18 00:55N 29°28' W 094°40'0 0.0
2018-Feb-18 00:30N 29°28' W 094°40'15 1.7
2018-Feb-17 16:04N 29°34' W 094°25'0 1.6
2018-Feb-17 16:00N 29°34' W 094°25'2 4.2
2018-Feb-17 15:30N 29°36' W 094°23'1 2.6
2018-Feb-17 14:59N 29°36' W 094°22'0 0.0
2018-Feb-17 14:30N 29°36' W 094°22'0 0.0
2018-Feb-17 14:00N 29°36' W 094°22'0 0.0
2018-Feb-17 13:29N 29°36' W 094°22'0 0.0
2018-Feb-17 12:56N 29°36' W 094°22'0 0.0
2018-Feb-17 12:30N 29°36' W 094°22'0 0.0
2018-Feb-17 11:54N 29°36' W 094°22'0 0.0
2018-Feb-17 11:28N 29°36' W 094°22'0 0.0
2018-Feb-17 10:54N 29°36' W 094°22'0 0.0
2018-Feb-17 10:25N 29°36' W 094°22'0 0.0
2018-Feb-17 10:00N 29°36' W 094°22'0 0.0
2018-Feb-17 09:30N 29°36' W 094°22'0 0.0
2018-Feb-17 09:00N 29°36' W 094°22'0 0.0
2018-Feb-17 08:30N 29°36' W 094°22'0 0.0
2018-Feb-17 07:59N 29°36' W 094°22'0 0.0
2018-Feb-17 07:29N 29°36' W 094°22'0 0.0
2018-Feb-17 06:51N 29°36' W 094°22'0 0.0
2018-Feb-17 06:30N 29°36' W 094°22'0 0.0
2018-Feb-17 05:54N 29°36' W 094°22'0 0.0
2018-Feb-17 05:30N 29°36' W 094°22'0 0.0
2018-Feb-17 04:57N 29°36' W 094°22'0 0.0
2018-Feb-17 04:30N 29°36' W 094°22'0 0.0
2018-Feb-17 03:57N 29°36' W 094°22'0 0.0
2018-Feb-17 03:29N 29°36' W 094°22'0 0.0
2018-Feb-17 02:59N 29°36' W 094°22'0 0.0
2018-Feb-17 02:27N 29°36' W 094°22'0 0.0
2018-Feb-17 01:53N 29°36' W 094°22'0 0.1
2018-Feb-17 01:30N 29°36' W 094°22'0 0.0
2018-Feb-17 00:57N 29°36' W 094°22'0 0.0
2018-Feb-17 00:30N 29°36' W 094°22'0 0.8
2018-Feb-17 00:00N 29°36' W 094°22'3 6.0
2018-Feb-16 23:30N 29°38' W 094°19'3 6.5
2018-Feb-16 23:00N 29°39' W 094°15'3 5.9
2018-Feb-16 22:30N 29°41' W 094°12'3 5.4
2018-Feb-16 22:00N 29°42' W 094°09'3 6.5
2018-Feb-16 21:30N 29°44' W 094°06'3 6.5
2018-Feb-16 21:00N 29°46' W 094°03'3 6.5
2018-Feb-16 20:31N 29°48' W 094°01'3 6.0
2018-Feb-16 20:00N 29°49' W 093°58'4 7.2
2018-Feb-16 19:30N 29°52' W 093°56'4 8.0
2018-Feb-16 19:00N 29°56' W 093°53'2 4.7
2018-Feb-16 18:30N 29°58' W 093°52'0 0.2
2018-Feb-16 18:00N 29°58' W 093°52'0 0.0
2018-Feb-16 17:31N 29°58' W 093°52'0 0.0
2018-Feb-16 17:01N 29°58' W 093°52'0 0.0
2018-Feb-16 16:31N 29°58' W 093°52'0 0.0
2018-Feb-16 16:00N 29°58' W 093°52'0 0.0
2018-Feb-16 15:31N 29°58' W 093°52'0 0.0
2018-Feb-16 15:00N 29°58' W 093°52'0 0.0
2018-Feb-16 14:30N 29°58' W 093°52'0 0.0
2018-Feb-16 14:01N 29°58' W 093°52'0 0.0
2018-Feb-16 13:31N 29°58' W 093°52'0 0.0
2018-Feb-16 13:00N 29°58' W 093°52'0 0.0
2018-Feb-16 12:30N 29°58' W 093°52'0 0.0
2018-Feb-16 12:00N 29°58' W 093°52'0 0.0
2018-Feb-16 11:31N 29°58' W 093°52'0 0.0
2018-Feb-16 11:00N 29°58' W 093°52'0 0.0
2018-Feb-16 10:30N 29°58' W 093°52'0 0.0
2018-Feb-16 10:00N 29°58' W 093°52'0 0.0
2018-Feb-16 09:31N 29°58' W 093°52'0 0.0
2018-Feb-16 09:00N 29°58' W 093°52'0 0.0
2018-Feb-16 08:30N 29°58' W 093°52'0 0.0
2018-Feb-16 08:00N 29°58' W 093°52'0 0.0
2018-Feb-16 07:30N 29°58' W 093°52'0 0.0
2018-Feb-16 07:00N 29°58' W 093°52'0 0.0
2018-Feb-16 06:30N 29°58' W 093°52'0 0.0
2018-Feb-16 06:00N 29°58' W 093°52'0 0.0
2018-Feb-16 05:30N 29°58' W 093°52'0 0.0
2018-Feb-16 05:00N 29°58' W 093°52'0 0.0
2018-Feb-16 04:31N 29°58' W 093°52'0 0.0
2018-Feb-16 04:01N 29°58' W 093°52'0 0.0
2018-Feb-16 03:30N 29°58' W 093°52'0 0.0
2018-Feb-16 03:00N 29°58' W 093°52'0 0.0
2018-Feb-16 02:30N 29°58' W 093°52'0 0.0
2018-Feb-16 02:00N 29°58' W 093°52'0 0.0
2018-Feb-16 01:30N 29°58' W 093°52'0 0.0
2018-Feb-16 01:00N 29°58' W 093°52'0 0.0
2018-Feb-16 00:31N 29°58' W 093°52'0 0.0
2018-Feb-16 00:00N 29°58' W 093°52'0 0.0
2018-Feb-15 23:30N 29°58' W 093°52'0 0.0
2018-Feb-15 23:00N 29°58' W 093°52'0 0.0
2018-Feb-15 22:31N 29°58' W 093°52'0 0.0
2018-Feb-15 22:00N 29°58' W 093°52'0 0.0
2018-Feb-15 21:30N 29°58' W 093°52'0 0.0
2018-Feb-15 21:00N 29°58' W 093°52'0 0.1
2018-Feb-15 20:30N 29°58' W 093°52'0 0.6
2018-Feb-15 20:01N 29°58' W 093°51'0 0.0
2018-Feb-15 19:31N 29°58' W 093°51'0 0.6
2018-Feb-15 19:00N 29°58' W 093°52'0 0.8
2018-Feb-15 18:30N 29°58' W 093°51'3 7.0
2018-Feb-15 18:01N 29°59' W 093°55'1 2.9
2018-Feb-15 17:30N 29°60' W 093°57'0 0.0
2018-Feb-15 17:00N 29°60' W 093°57'0 0.0
2018-Feb-15 16:31N 29°60' W 093°57'0 0.0
2018-Feb-15 16:01N 29°60' W 093°57'0 0.0
2018-Feb-15 15:30N 29°60' W 093°57'0 0.0
2018-Feb-15 15:00N 29°60' W 093°57'0 0.0
2018-Feb-15 14:31N 29°60' W 093°57'0 0.0
2018-Feb-15 13:59N 29°60' W 093°57'0 0.0
2018-Feb-15 13:31N 29°60' W 093°57'0 0.0
2018-Feb-15 13:00N 29°60' W 093°57'0 0.0
2018-Feb-15 12:31N 29°60' W 093°57'0 0.0
2018-Feb-15 12:00N 29°60' W 093°57'0 0.0
2018-Feb-15 11:29N 29°60' W 093°57'0 0.0
2018-Feb-15 10:59N 29°60' W 093°57'0 0.0
2018-Feb-15 10:29N 29°60' W 093°57'0 0.0
2018-Feb-15 10:00N 29°60' W 093°57'0 0.0
2018-Feb-15 09:31N 29°60' W 093°57'0 0.0
2018-Feb-15 09:00N 29°60' W 093°57'0 0.0
2018-Feb-15 08:30N 29°60' W 093°57'0 0.0
2018-Feb-15 08:00N 29°60' W 093°57'0 0.0
2018-Feb-15 07:30N 29°60' W 093°57'0 0.0
2018-Feb-15 07:01N 29°60' W 093°57'0 0.0
2018-Feb-15 06:31N 29°60' W 093°57'0 0.0
2018-Feb-15 05:59N 29°60' W 093°57'0 0.0
2018-Feb-15 05:30N 29°60' W 093°57'0 0.0
2018-Feb-15 05:00N 29°60' W 093°57'0 0.0
2018-Feb-15 04:29N 29°60' W 093°57'0 0.0
2018-Feb-15 04:00N 29°60' W 093°57'0 0.0
2018-Feb-15 03:30N 29°60' W 093°57'0 0.0
2018-Feb-15 03:01N 29°60' W 093°57'0 0.0
2018-Feb-15 02:31N 29°60' W 093°57'0 0.0
2018-Feb-15 02:01N 29°60' W 093°57'0 0.0
2018-Feb-15 01:30N 29°60' W 093°57'0 0.0
2018-Feb-15 01:00N 29°60' W 093°57'0 0.0
2018-Feb-15 00:31N 29°60' W 093°57'0 0.0
2018-Feb-15 00:01N 29°60' W 093°57'0 0.0
2018-Feb-14 23:31N 29°60' W 093°57'0 0.0
2018-Feb-14 23:01N 29°60' W 093°57'0 0.0
2018-Feb-14 22:30N 29°60' W 093°57'0 0.0
2018-Feb-14 22:00N 29°60' W 093°57'0 0.0
2018-Feb-14 21:30N 29°60' W 093°57'1 2.5
2018-Feb-14 21:01N 29°59' W 093°55'3 5.2
2018-Feb-14 20:30N 29°59' W 093°52'2 4.0
2018-Feb-14 20:00N 29°57' W 093°52'1 1.8
2018-Feb-14 19:31N 29°58' W 093°52'1 1.6
2018-Feb-14 19:00N 29°57' W 093°52'1 2.2
2018-Feb-14 18:30N 29°58' W 093°52'0 0.0
2018-Feb-14 18:01N 29°58' W 093°52'0 0.0
2018-Feb-14 17:30N 29°58' W 093°52'0 0.0
2018-Feb-14 17:01N 29°58' W 093°52'0 0.0
2018-Feb-14 16:30N 29°58' W 093°52'0 0.0
2018-Feb-14 16:01N 29°58' W 093°52'0 0.0
2018-Feb-14 15:29N 29°58' W 093°52'0 0.0
2018-Feb-14 15:00N 29°58' W 093°52'0 0.0
2018-Feb-14 14:30N 29°58' W 093°52'0 0.0
2018-Feb-14 14:00N 29°58' W 093°52'0 0.0
2018-Feb-14 13:31N 29°58' W 093°52'0 0.0
2018-Feb-14 13:00N 29°58' W 093°52'0 0.0
2018-Feb-14 12:30N 29°58' W 093°52'0 0.0
2018-Feb-14 12:01N 29°58' W 093°52'0 0.0
2018-Feb-14 11:30N 29°58' W 093°52'0 0.0
2018-Feb-14 11:01N 29°58' W 093°52'0 0.0
2018-Feb-14 10:28N 29°58' W 093°52'0 0.0
2018-Feb-14 10:00N 29°58' W 093°52'0 0.0
2018-Feb-14 09:31N 29°58' W 093°52'0 0.0
2018-Feb-14 09:01N 29°58' W 093°52'0 0.0
2018-Feb-14 08:30N 29°58' W 093°52'0 0.0
2018-Feb-14 08:00N 29°58' W 093°52'1 2.3
2018-Feb-14 07:31N 29°57' W 093°52'0 0.2
2018-Feb-14 07:01N 29°57' W 093°52'3 6.0
2018-Feb-14 06:30N 29°55' W 093°54'3 6.2
2018-Feb-14 06:01N 29°52' W 093°56'3 5.8
2018-Feb-14 05:30N 29°50' W 093°57'2 4.9
2018-Feb-14 05:00N 29°48' W 093°60'2 4.7
2018-Feb-14 04:31N 29°47' W 094°02'2 4.7
2018-Feb-14 04:00N 29°45' W 094°04'2 4.7
2018-Feb-14 03:31N 29°44' W 094°06'2 4.5
2018-Feb-14 03:00N 29°42' W 094°08'2 4.4
2018-Feb-14 02:31N 29°41' W 094°10'2 4.5
2018-Feb-14 02:00N 29°41' W 094°13'2 4.5
2018-Feb-14 01:30N 29°39' W 094°15'2 4.5
2018-Feb-14 01:00N 29°38' W 094°17'3 4.5
2018-Feb-14 00:21N 29°37' W 094°20'2 4.3
2018-Feb-13 23:55N 29°36' W 094°22'27 3.8
2018-Feb-13 16:43N 29°30' W 094°52'3 6.3
2018-Feb-13 16:14N 29°33' W 094°54'1 6.4
2018-Feb-13 16:00N 29°34' W 094°55'3 5.9
2018-Feb-13 15:30N 29°36' W 094°57'3 6.4
2018-Feb-13 15:00N 29°39' W 094°58'3 6.4
2018-Feb-13 14:29N 29°42' W 095°01'  

Dump ship's entire track history